<?xml version="1.0" encoding="UTF-8" ?>
<gpx xmlns="http://www.topografix.com/GPX/1/1" version="1.1" creator="OSMTracker for Android™ - https://github.com/nguillaumin/osmtracker-android" xmlns:xsi="http://www.w3.org/2001/XMLSchema-instance" xsi:schemaLocation="http://www.topografix.com/GPX/1/1 http://www.topografix.com/GPX/1/1/gpx.xsd ">
	<wpt lat="55.66290346439928" lon="12.585120582953095">
		<ele>44.0</ele>
		<time>2023-06-29T15:26:48Z</time>
		<name><![CDATA[Photo]]></name>
		<link href="2023-06-29_17-26-48.jpg">
			<text>2023-06-29_17-26-48.jpg</text>
		</link>
		<sat>26</sat>
	</wpt>
	<wpt lat="55.66295941360295" lon="12.585080182179809">
		<ele>45.0</ele>
		<time>2023-06-29T15:27:00Z</time>
		<name><![CDATA[Photo]]></name>
		<link href="2023-06-29_17-27-00.jpg">
			<text>2023-06-29_17-27-00.jpg</text>
		</link>
		<sat>25</sat>
	</wpt>
	<wpt lat="55.66280510276556" lon="12.584936516359448">
		<ele>40.0</ele>
		<time>2023-06-29T15:27:24Z</time>
		<name><![CDATA[Photo]]></name>
		<link href="2023-06-29_17-27-24.jpg">
			<text>2023-06-29_17-27-24.jpg</text>
		</link>
		<sat>25</sat>
	</wpt>
	<wpt lat="55.6629048474133" lon="12.584997117519379">
		<ele>41.0</ele>
		<time>2023-06-29T15:27:33Z</time>
		<name><![CDATA[Photo]]></name>
		<link href="2023-06-29_17-27-33.jpg">
			<text>2023-06-29_17-27-33.jpg</text>
		</link>
		<sat>24</sat>
	</wpt>
	<wpt lat="55.66294281743467" lon="12.585099125280976">
		<ele>43.0</ele>
		<time>2023-06-29T15:28:14Z</time>
		<name><![CDATA[Photo]]></name>
		<link href="2023-06-29_17-28-14.jpg">
			<text>2023-06-29_17-28-14.jpg</text>
		</link>
		<sat>24</sat>
	</wpt>
	<wpt lat="55.66282425541431" lon="12.585211861878633">
		<ele>43.0</ele>
		<time>2023-06-29T15:28:29Z</time>
		<name><![CDATA[Photo]]></name>
		<link href="2023-06-29_17-28-29.jpg">
			<text>2023-06-29_17-28-29.jpg</text>
		</link>
		<sat>24</sat>
	</wpt>
	<wpt lat="55.66289416048676" lon="12.585143381729722">
		<ele>42.0</ele>
		<time>2023-06-29T15:28:40Z</time>
		<name><![CDATA[Photo]]></name>
		<link href="2023-06-29_17-28-40.jpg">
			<text>2023-06-29_17-28-40.jpg</text>
		</link>
		<sat>25</sat>
	</wpt>
	<wpt lat="55.6631276383996" lon="12.585108932107687">
		<ele>44.0</ele>
		<time>2023-06-29T15:29:08Z</time>
		<name><![CDATA[Photo]]></name>
		<link href="2023-06-29_17-29-08.jpg">
			<text>2023-06-29_17-29-08.jpg</text>
		</link>
		<sat>25</sat>
	</wpt>
	<wpt lat="55.663129733875394" lon="12.585097951814532">
		<ele>44.0</ele>
		<time>2023-06-29T15:29:18Z</time>
		<name><![CDATA[Photo]]></name>
		<link href="2023-06-29_17-29-18.jpg">
			<text>2023-06-29_17-29-18.jpg</text>
		</link>
		<sat>26</sat>
	</wpt>
	<wpt lat="55.66345780156553" lon="12.585157630965114">
		<ele>43.0</ele>
		<time>2023-06-29T15:29:45Z</time>
		<name><![CDATA[Photo]]></name>
		<link href="2023-06-29_17-29-45.jpg">
			<text>2023-06-29_17-29-45.jpg</text>
		</link>
		<sat>24</sat>
	</wpt>
	<wpt lat="55.66351907327771" lon="12.585212532430887">
		<ele>40.0</ele>
		<time>2023-06-29T15:29:55Z</time>
		<name><![CDATA[Photo]]></name>
		<link href="2023-06-29_17-29-55.jpg">
			<text>2023-06-29_17-29-55.jpg</text>
		</link>
		<sat>27</sat>
	</wpt>
	<wpt lat="55.66357200499624" lon="12.585189063102007">
		<ele>43.0</ele>
		<time>2023-06-29T15:30:08Z</time>
		<name><![CDATA[Photo]]></name>
		<link href="2023-06-29_17-30-08.jpg">
			<text>2023-06-29_17-30-08.jpg</text>
		</link>
		<sat>22</sat>
	</wpt>
	<trk>
		<name><![CDATA[Tracked med OSMTracker til Android™]]></name>
		<trkseg>
			<trkpt lat="55.66294868476689" lon="12.585103986784816">
				<ele>52.0</ele>
				<time>2023-06-29T15:26:31Z</time>
				<extensions>
					<speed>0.8899999856948853</speed>
				</extensions>
			</trkpt>
			<trkpt lat="55.66293518990278" lon="12.585020083934069">
				<ele>47.0</ele>
				<time>2023-06-29T15:26:32Z</time>
				<extensions>
					<speed>0.38999998569488525</speed>
				</extensions>
			</trkpt>
			<trkpt lat="55.66296100616455" lon="12.585063586011529">
				<ele>51.0</ele>
				<time>2023-06-29T15:26:33Z</time>
				<extensions>
					<speed>0.3700000047683716</speed>
				</extensions>
			</trkpt>
			<trkpt lat="55.66295078024268" lon="12.585084456950426">
				<ele>48.0</ele>
				<time>2023-06-29T15:26:34Z</time>
				<extensions>
					<speed>1.2699999809265137</speed>
				</extensions>
			</trkpt>
			<trkpt lat="55.66292006056756" lon="12.585137095302343">
				<ele>47.0</ele>
				<time>2023-06-29T15:26:35Z</time>
				<extensions>
					<speed>0.7699999809265137</speed>
				</extensions>
			</trkpt>
			<trkpt lat="55.66288494039327" lon="12.585149081423879">
				<ele>46.0</ele>
				<time>2023-06-29T15:26:36Z</time>
				<extensions>
					<speed>0.19999998807907104</speed>
				</extensions>
			</trkpt>
			<trkpt lat="55.662889927625656" lon="12.58515008725226">
				<ele>45.0</ele>
				<time>2023-06-29T15:26:37Z</time>
				<extensions>
					<speed>0.23999999463558197</speed>
				</extensions>
			</trkpt>
			<trkpt lat="55.6628918973729" lon="12.585138352587819">
				<ele>45.0</ele>
				<time>2023-06-29T15:26:38Z</time>
				<extensions>
					<speed>1.0499999523162842</speed>
				</extensions>
			</trkpt>
			<trkpt lat="55.66289562731981" lon="12.58512175641954">
				<ele>47.0</ele>
				<time>2023-06-29T15:26:39Z</time>
				<extensions>
					<speed>1.96999990940094</speed>
				</extensions>
			</trkpt>
			<trkpt lat="55.66290941555053" lon="12.585096191614866">
				<ele>49.0</ele>
				<time>2023-06-29T15:26:40Z</time>
				<extensions>
					<speed>1.6699999570846558</speed>
				</extensions>
			</trkpt>
			<trkpt lat="55.6629109242931" lon="12.585090408101678">
				<ele>46.0</ele>
				<time>2023-06-29T15:26:41Z</time>
				<extensions>
					<speed>0.1899999976158142</speed>
				</extensions>
			</trkpt>
			<trkpt lat="55.66290346439928" lon="12.585119577124715">
				<ele>44.0</ele>
				<time>2023-06-29T15:26:42Z</time>
				<extensions>
					<speed>0.07000000029802322</speed>
				</extensions>
			</trkpt>
			<trkpt lat="55.66290346439928" lon="12.585120582953095">
				<ele>44.0</ele>
				<time>2023-06-29T15:26:48Z</time>
				<extensions>
					<speed>0.0</speed>
				</extensions>
			</trkpt>
			<trkpt lat="55.66290132701397" lon="12.585118068382144">
				<ele>44.0</ele>
				<time>2023-06-29T15:26:49Z</time>
				<extensions>
					<speed>0.6800000071525574</speed>
				</extensions>
			</trkpt>
			<trkpt lat="55.6629090802744" lon="12.585123013705015">
				<ele>43.0</ele>
				<time>2023-06-29T15:26:50Z</time>
				<extensions>
					<speed>0.9399999976158142</speed>
				</extensions>
			</trkpt>
			<trkpt lat="55.66291557624936" lon="12.585139190778136">
				<ele>40.0</ele>
				<time>2023-06-29T15:26:51Z</time>
				<extensions>
					<speed>1.7999999523162842</speed>
				</extensions>
			</trkpt>
			<trkpt lat="55.66292295232415" lon="12.58513206616044">
				<ele>40.0</ele>
				<time>2023-06-29T15:26:52Z</time>
				<extensions>
					<speed>0.7699999809265137</speed>
				</extensions>
			</trkpt>
			<trkpt lat="55.6629378721118" lon="12.585136005654931">
				<ele>39.0</ele>
				<time>2023-06-29T15:26:53Z</time>
				<extensions>
					<speed>1.1999999284744263</speed>
				</extensions>
			</trkpt>
			<trkpt lat="55.66294512245804" lon="12.585130389779806">
				<ele>40.0</ele>
				<time>2023-06-29T15:26:54Z</time>
				<extensions>
					<speed>1.0399999618530273</speed>
				</extensions>
			</trkpt>
			<trkpt lat="55.662954594008625" lon="12.585126785561442">
				<ele>41.0</ele>
				<time>2023-06-29T15:26:55Z</time>
				<extensions>
					<speed>0.9099999666213989</speed>
				</extensions>
			</trkpt>
			<trkpt lat="55.66297424957156" lon="12.58511739782989">
				<ele>43.0</ele>
				<time>2023-06-29T15:26:56Z</time>
				<extensions>
					<speed>2.7799999713897705</speed>
				</extensions>
			</trkpt>
			<trkpt lat="55.66298409830779" lon="12.585100550204515">
				<ele>46.0</ele>
				<time>2023-06-29T15:26:57Z</time>
				<extensions>
					<speed>0.9799999594688416</speed>
				</extensions>
			</trkpt>
			<trkpt lat="55.66298346966505" lon="12.58509686216712">
				<ele>45.0</ele>
				<time>2023-06-29T15:26:58Z</time>
				<extensions>
					<speed>0.3999999761581421</speed>
				</extensions>
			</trkpt>
			<trkpt lat="55.66296892706305" lon="12.585086887702346">
				<ele>45.0</ele>
				<time>2023-06-29T15:26:59Z</time>
				<extensions>
					<speed>1.459999918937683</speed>
				</extensions>
			</trkpt>
			<trkpt lat="55.66295941360295" lon="12.585080182179809">
				<ele>45.0</ele>
				<time>2023-06-29T15:27:00Z</time>
				<extensions>
					<speed>0.6499999761581421</speed>
				</extensions>
			</trkpt>
			<trkpt lat="55.6629508221522" lon="12.585069704800844">
				<ele>44.0</ele>
				<time>2023-06-29T15:27:01Z</time>
				<extensions>
					<speed>0.7199999690055847</speed>
				</extensions>
			</trkpt>
			<trkpt lat="55.66295224707574" lon="12.585053779184818">
				<ele>44.0</ele>
				<time>2023-06-29T15:27:02Z</time>
				<extensions>
					<speed>1.7300000190734863</speed>
				</extensions>
			</trkpt>
			<trkpt lat="55.662950025871396" lon="12.585034584626555">
				<ele>43.0</ele>
				<time>2023-06-29T15:27:03Z</time>
				<extensions>
					<speed>0.8499999642372131</speed>
				</extensions>
			</trkpt>
			<trkpt lat="55.662943068891764" lon="12.585021173581481">
				<ele>43.0</ele>
				<time>2023-06-29T15:27:04Z</time>
				<extensions>
					<speed>1.2999999523162842</speed>
				</extensions>
			</trkpt>
			<trkpt lat="55.66293695010245" lon="12.585008852183819">
				<ele>43.0</ele>
				<time>2023-06-29T15:27:05Z</time>
				<extensions>
					<speed>1.4800000190734863</speed>
				</extensions>
			</trkpt>
			<trkpt lat="55.66292458679527" lon="12.584996279329062">
				<ele>43.0</ele>
				<time>2023-06-29T15:27:06Z</time>
				<extensions>
					<speed>1.4199999570846558</speed>
				</extensions>
			</trkpt>
			<trkpt lat="55.66291293594986" lon="12.584990495815873">
				<ele>43.0</ele>
				<time>2023-06-29T15:27:07Z</time>
				<extensions>
					<speed>1.3600000143051147</speed>
				</extensions>
			</trkpt>
			<trkpt lat="55.66290145274252" lon="12.5849873945117">
				<ele>43.0</ele>
				<time>2023-06-29T15:27:08Z</time>
				<extensions>
					<speed>1.2599999904632568</speed>
				</extensions>
			</trkpt>
			<trkpt lat="55.662892567925155" lon="12.584985801950097">
				<ele>42.0</ele>
				<time>2023-06-29T15:27:09Z</time>
				<extensions>
					<speed>1.159999966621399</speed>
				</extensions>
			</trkpt>
			<trkpt lat="55.662878109142184" lon="12.584981191903353">
				<ele>42.0</ele>
				<time>2023-06-29T15:27:10Z</time>
				<extensions>
					<speed>1.3399999141693115</speed>
				</extensions>
			</trkpt>
			<trkpt lat="55.66286536864936" lon="12.584983790293336">
				<ele>42.0</ele>
				<time>2023-06-29T15:27:11Z</time>
				<extensions>
					<speed>1.350000023841858</speed>
				</extensions>
			</trkpt>
			<trkpt lat="55.662851706147194" lon="12.58498060517013">
				<ele>42.0</ele>
				<time>2023-06-29T15:27:12Z</time>
				<extensions>
					<speed>1.3600000143051147</speed>
				</extensions>
			</trkpt>
			<trkpt lat="55.66284210886806" lon="12.58496979251504">
				<ele>42.0</ele>
				<time>2023-06-29T15:27:13Z</time>
				<extensions>
					<speed>1.2899999618530273</speed>
				</extensions>
			</trkpt>
			<trkpt lat="55.66283087711781" lon="12.584964344277978">
				<ele>42.0</ele>
				<time>2023-06-29T15:27:14Z</time>
				<extensions>
					<speed>1.4800000190734863</speed>
				</extensions>
			</trkpt>
			<trkpt lat="55.66281713079661" lon="12.584955291822553">
				<ele>42.0</ele>
				<time>2023-06-29T15:27:15Z</time>
				<extensions>
					<speed>1.3899999856948853</speed>
				</extensions>
			</trkpt>
			<trkpt lat="55.66280589904636" lon="12.58494540117681">
				<ele>42.0</ele>
				<time>2023-06-29T15:27:16Z</time>
				<extensions>
					<speed>1.3700000047683716</speed>
				</extensions>
			</trkpt>
			<trkpt lat="55.66279479302466" lon="12.584942551329732">
				<ele>42.0</ele>
				<time>2023-06-29T15:27:17Z</time>
				<extensions>
					<speed>1.2999999523162842</speed>
				</extensions>
			</trkpt>
			<trkpt lat="55.662785614840686" lon="12.584942886605859">
				<ele>42.0</ele>
				<time>2023-06-29T15:27:18Z</time>
				<extensions>
					<speed>1.100000023841858</speed>
				</extensions>
			</trkpt>
			<trkpt lat="55.662783812731504" lon="12.584942551329732">
				<ele>42.0</ele>
				<time>2023-06-29T15:27:19Z</time>
				<extensions>
					<speed>0.75</speed>
				</extensions>
			</trkpt>
			<trkpt lat="55.66278586629778" lon="12.584935426712036">
				<ele>42.0</ele>
				<time>2023-06-29T15:27:20Z</time>
				<extensions>
					<speed>0.23999999463558197</speed>
				</extensions>
			</trkpt>
			<trkpt lat="55.66278184298426" lon="12.584930062294006">
				<ele>41.0</ele>
				<time>2023-06-29T15:27:21Z</time>
				<extensions>
					<speed>0.1599999964237213</speed>
				</extensions>
			</trkpt>
			<trkpt lat="55.662779160775244" lon="12.584922518581152">
				<ele>40.0</ele>
				<time>2023-06-29T15:27:22Z</time>
				<extensions>
					<speed>0.6100000143051147</speed>
				</extensions>
			</trkpt>
			<trkpt lat="55.66279294900596" lon="12.584929391741753">
				<ele>40.0</ele>
				<time>2023-06-29T15:27:23Z</time>
				<extensions>
					<speed>0.9699999690055847</speed>
				</extensions>
			</trkpt>
			<trkpt lat="55.66280510276556" lon="12.584936516359448">
				<ele>40.0</ele>
				<time>2023-06-29T15:27:24Z</time>
				<extensions>
					<speed>1.3799999952316284</speed>
				</extensions>
			</trkpt>
			<trkpt lat="55.662820441648364" lon="12.584945736452937">
				<ele>41.0</ele>
				<time>2023-06-29T15:27:25Z</time>
				<extensions>
					<speed>1.1799999475479126</speed>
				</extensions>
			</trkpt>
			<trkpt lat="55.66283523570746" lon="12.584959315136075">
				<ele>41.0</ele>
				<time>2023-06-29T15:27:26Z</time>
				<extensions>
					<speed>2.5799999237060547</speed>
				</extensions>
			</trkpt>
			<trkpt lat="55.662854011170566" lon="12.584973983466625">
				<ele>40.0</ele>
				<time>2023-06-29T15:27:27Z</time>
				<extensions>
					<speed>3.3899998664855957</speed>
				</extensions>
			</trkpt>
			<trkpt lat="55.662865452468395" lon="12.584981946274638">
				<ele>40.0</ele>
				<time>2023-06-29T15:27:28Z</time>
				<extensions>
					<speed>1.409999966621399</speed>
				</extensions>
			</trkpt>
			<trkpt lat="55.66287484019995" lon="12.584988484159112">
				<ele>40.0</ele>
				<time>2023-06-29T15:27:29Z</time>
				<extensions>
					<speed>1.4499999284744263</speed>
				</extensions>
			</trkpt>
			<trkpt lat="55.662879911251366" lon="12.584994519129395">
				<ele>41.0</ele>
				<time>2023-06-29T15:27:30Z</time>
				<extensions>
					<speed>0.8700000047683716</speed>
				</extensions>
			</trkpt>
			<trkpt lat="55.66288351546973" lon="12.584991669282317">
				<ele>41.0</ele>
				<time>2023-06-29T15:27:31Z</time>
				<extensions>
					<speed>0.7400000095367432</speed>
				</extensions>
			</trkpt>
			<trkpt lat="55.66289361566305" lon="12.584996027871966">
				<ele>41.0</ele>
				<time>2023-06-29T15:27:32Z</time>
				<extensions>
					<speed>1.2400000095367432</speed>
				</extensions>
			</trkpt>
			<trkpt lat="55.6629048474133" lon="12.584997117519379">
				<ele>41.0</ele>
				<time>2023-06-29T15:27:33Z</time>
				<extensions>
					<speed>1.409999966621399</speed>
				</extensions>
			</trkpt>
			<trkpt lat="55.662919976748526" lon="12.584998793900013">
				<ele>42.0</ele>
				<time>2023-06-29T15:27:34Z</time>
				<extensions>
					<speed>1.8799999952316284</speed>
				</extensions>
			</trkpt>
			<trkpt lat="55.662932842969894" lon="12.58498303592205">
				<ele>41.0</ele>
				<time>2023-06-29T15:27:35Z</time>
				<extensions>
					<speed>1.8499999046325684</speed>
				</extensions>
			</trkpt>
			<trkpt lat="55.66294277552515" lon="12.584977000951767">
				<ele>41.0</ele>
				<time>2023-06-29T15:27:36Z</time>
				<extensions>
					<speed>2.1599998474121094</speed>
				</extensions>
			</trkpt>
			<trkpt lat="55.66295916214585" lon="12.584982281550765">
				<ele>42.0</ele>
				<time>2023-06-29T15:27:37Z</time>
				<extensions>
					<speed>1.709999918937683</speed>
				</extensions>
			</trkpt>
			<trkpt lat="55.66297395620495" lon="12.584992507472634">
				<ele>41.0</ele>
				<time>2023-06-29T15:27:38Z</time>
				<extensions>
					<speed>1.4399999380111694</speed>
				</extensions>
			</trkpt>
			<trkpt lat="55.66298883408308" lon="12.58498890325427">
				<ele>40.0</ele>
				<time>2023-06-29T15:27:39Z</time>
				<extensions>
					<speed>1.2300000190734863</speed>
				</extensions>
			</trkpt>
			<trkpt lat="55.66299985628575" lon="12.584988232702017">
				<ele>41.0</ele>
				<time>2023-06-29T15:27:40Z</time>
				<extensions>
					<speed>1.2599999904632568</speed>
				</extensions>
			</trkpt>
			<trkpt lat="55.6630137283355" lon="12.584991501644254">
				<ele>41.0</ele>
				<time>2023-06-29T15:27:41Z</time>
				<extensions>
					<speed>1.6399999856948853</speed>
				</extensions>
			</trkpt>
			<trkpt lat="55.66302412189543" lon="12.585003739222884">
				<ele>42.0</ele>
				<time>2023-06-29T15:27:42Z</time>
				<extensions>
					<speed>0.8700000047683716</speed>
				</extensions>
			</trkpt>
			<trkpt lat="55.663026426918805" lon="12.585002146661282">
				<ele>42.0</ele>
				<time>2023-06-29T15:27:43Z</time>
				<extensions>
					<speed>0.11999999731779099</speed>
				</extensions>
			</trkpt>
			<trkpt lat="55.66302525345236" lon="12.58500256575644">
				<ele>42.0</ele>
				<time>2023-06-29T15:27:44Z</time>
				<extensions>
					<speed>0.019999999552965164</speed>
				</extensions>
			</trkpt>
			<trkpt lat="55.66302529536188" lon="12.585002649575472">
				<ele>42.0</ele>
				<time>2023-06-29T15:27:45Z</time>
				<extensions>
					<speed>0.0</speed>
				</extensions>
			</trkpt>
			<trkpt lat="55.66302529536188" lon="12.585002649575472">
				<ele>42.0</ele>
				<time>2023-06-29T15:27:46Z</time>
				<extensions>
					<speed>0.0</speed>
				</extensions>
			</trkpt>
			<trkpt lat="55.66302529536188" lon="12.585002649575472">
				<ele>42.0</ele>
				<time>2023-06-29T15:27:47Z</time>
				<extensions>
					<speed>0.0</speed>
				</extensions>
			</trkpt>
			<trkpt lat="55.66302529536188" lon="12.585002649575472">
				<ele>42.0</ele>
				<time>2023-06-29T15:27:48Z</time>
				<extensions>
					<speed>0.0</speed>
				</extensions>
			</trkpt>
			<trkpt lat="55.66293472889811" lon="12.585115721449256">
				<ele>43.0</ele>
				<time>2023-06-29T15:28:15Z</time>
				<extensions>
					<speed>1.6299999952316284</speed>
				</extensions>
			</trkpt>
			<trkpt lat="55.66292529925704" lon="12.585122846066952">
				<ele>43.0</ele>
				<time>2023-06-29T15:28:16Z</time>
				<extensions>
					<speed>0.5399999618530273</speed>
				</extensions>
			</trkpt>
			<trkpt lat="55.66291733644903" lon="12.585117733106017">
				<ele>42.0</ele>
				<time>2023-06-29T15:28:17Z</time>
				<extensions>
					<speed>0.8999999761581421</speed>
				</extensions>
			</trkpt>
			<trkpt lat="55.66290928982198" lon="12.585125863552094">
				<ele>41.0</ele>
				<time>2023-06-29T15:28:18Z</time>
				<extensions>
					<speed>0.7099999785423279</speed>
				</extensions>
			</trkpt>
			<trkpt lat="55.66289566922933" lon="12.585136089473963">
				<ele>41.0</ele>
				<time>2023-06-29T15:28:19Z</time>
				<extensions>
					<speed>1.5799999237060547</speed>
				</extensions>
			</trkpt>
			<trkpt lat="55.66287852823734" lon="12.585148494690657">
				<ele>41.0</ele>
				<time>2023-06-29T15:28:20Z</time>
				<extensions>
					<speed>1.4900000095367432</speed>
				</extensions>
			</trkpt>
			<trkpt lat="55.66286478191614" lon="12.585158720612526">
				<ele>41.0</ele>
				<time>2023-06-29T15:28:21Z</time>
				<extensions>
					<speed>1.399999976158142</speed>
				</extensions>
			</trkpt>
			<trkpt lat="55.66285317298025" lon="12.585170455276966">
				<ele>41.0</ele>
				<time>2023-06-29T15:28:22Z</time>
				<extensions>
					<speed>1.2999999523162842</speed>
				</extensions>
			</trkpt>
			<trkpt lat="55.662838546559215" lon="12.58518336340785">
				<ele>41.0</ele>
				<time>2023-06-29T15:28:23Z</time>
				<extensions>
					<speed>1.159999966621399</speed>
				</extensions>
			</trkpt>
			<trkpt lat="55.662827105261385" lon="12.585188811644912">
				<ele>41.0</ele>
				<time>2023-06-29T15:28:24Z</time>
				<extensions>
					<speed>1.0199999809265137</speed>
				</extensions>
			</trkpt>
			<trkpt lat="55.662822662852705" lon="12.585203982889652">
				<ele>41.0</ele>
				<time>2023-06-29T15:28:25Z</time>
				<extensions>
					<speed>0.699999988079071</speed>
				</extensions>
			</trkpt>
			<trkpt lat="55.66281834617257" lon="12.585228960961103">
				<ele>42.0</ele>
				<time>2023-06-29T15:28:26Z</time>
				<extensions>
					<speed>1.8899999856948853</speed>
				</extensions>
			</trkpt>
			<trkpt lat="55.66281470004469" lon="12.585228541865945">
				<ele>43.0</ele>
				<time>2023-06-29T15:28:27Z</time>
				<extensions>
					<speed>0.3499999940395355</speed>
				</extensions>
			</trkpt>
			<trkpt lat="55.662815580144525" lon="12.58522636257112">
				<ele>43.0</ele>
				<time>2023-06-29T15:28:28Z</time>
				<extensions>
					<speed>0.0</speed>
				</extensions>
			</trkpt>
			<trkpt lat="55.66282425541431" lon="12.585211861878633">
				<ele>43.0</ele>
				<time>2023-06-29T15:28:29Z</time>
				<extensions>
					<speed>0.29999998211860657</speed>
				</extensions>
			</trkpt>
			<trkpt lat="55.66283037420362" lon="12.585207419469953">
				<ele>43.0</ele>
				<time>2023-06-29T15:28:30Z</time>
				<extensions>
					<speed>0.7099999785423279</speed>
				</extensions>
			</trkpt>
			<trkpt lat="55.66284135449678" lon="12.585201133042574">
				<ele>43.0</ele>
				<time>2023-06-29T15:28:31Z</time>
				<extensions>
					<speed>0.5899999737739563</speed>
				</extensions>
			</trkpt>
			<trkpt lat="55.662850071676075" lon="12.585196690633893">
				<ele>43.0</ele>
				<time>2023-06-29T15:28:32Z</time>
				<extensions>
					<speed>0.7400000095367432</speed>
				</extensions>
			</trkpt>
			<trkpt lat="55.66286285407841" lon="12.585188308730721">
				<ele>43.0</ele>
				<time>2023-06-29T15:28:33Z</time>
				<extensions>
					<speed>0.7199999690055847</speed>
				</extensions>
			</trkpt>
			<trkpt lat="55.66287852823734" lon="12.585182022303343">
				<ele>42.0</ele>
				<time>2023-06-29T15:28:34Z</time>
				<extensions>
					<speed>2.129999876022339</speed>
				</extensions>
			</trkpt>
			<trkpt lat="55.66289411857724" lon="12.585174143314362">
				<ele>41.0</ele>
				<time>2023-06-29T15:28:35Z</time>
				<extensions>
					<speed>1.3199999332427979</speed>
				</extensions>
			</trkpt>
			<trkpt lat="55.66289768088609" lon="12.585166934877634">
				<ele>42.0</ele>
				<time>2023-06-29T15:28:36Z</time>
				<extensions>
					<speed>0.6399999856948853</speed>
				</extensions>
			</trkpt>
			<trkpt lat="55.66289856098592" lon="12.585165174677968">
				<ele>42.0</ele>
				<time>2023-06-29T15:28:37Z</time>
				<extensions>
					<speed>0.05999999865889549</speed>
				</extensions>
			</trkpt>
			<trkpt lat="55.66288728732616" lon="12.585155451670289">
				<ele>41.0</ele>
				<time>2023-06-29T15:28:38Z</time>
				<extensions>
					<speed>2.069999933242798</speed>
				</extensions>
			</trkpt>
			<trkpt lat="55.66288850270212" lon="12.58514815941453">
				<ele>42.0</ele>
				<time>2023-06-29T15:28:39Z</time>
				<extensions>
					<speed>0.550000011920929</speed>
				</extensions>
			</trkpt>
			<trkpt lat="55.66289416048676" lon="12.585143381729722">
				<ele>42.0</ele>
				<time>2023-06-29T15:28:40Z</time>
				<extensions>
					<speed>0.8499999642372131</speed>
				</extensions>
			</trkpt>
			<trkpt lat="55.66290820017457" lon="12.585141537711024">
				<ele>42.0</ele>
				<time>2023-06-29T15:28:41Z</time>
				<extensions>
					<speed>1.1699999570846558</speed>
				</extensions>
			</trkpt>
			<trkpt lat="55.662924544885755" lon="12.5851427949965">
				<ele>42.0</ele>
				<time>2023-06-29T15:28:42Z</time>
				<extensions>
					<speed>1.3799999952316284</speed>
				</extensions>
			</trkpt>
			<trkpt lat="55.662937075830996" lon="12.585144052281976">
				<ele>42.0</ele>
				<time>2023-06-29T15:28:43Z</time>
				<extensions>
					<speed>1.090000033378601</speed>
				</extensions>
			</trkpt>
			<trkpt lat="55.662943446077406" lon="12.58515553548932">
				<ele>40.0</ele>
				<time>2023-06-29T15:28:44Z</time>
				<extensions>
					<speed>1.2599999904632568</speed>
				</extensions>
			</trkpt>
			<trkpt lat="55.66295078024268" lon="12.585163582116365">
				<ele>39.0</ele>
				<time>2023-06-29T15:28:45Z</time>
				<extensions>
					<speed>1.100000023841858</speed>
				</extensions>
			</trkpt>
			<trkpt lat="55.66296138335019" lon="12.585162241011858">
				<ele>38.0</ele>
				<time>2023-06-29T15:28:46Z</time>
				<extensions>
					<speed>0.9599999785423279</speed>
				</extensions>
			</trkpt>
			<trkpt lat="55.66297274082899" lon="12.585159642621875">
				<ele>38.0</ele>
				<time>2023-06-29T15:28:47Z</time>
				<extensions>
					<speed>1.0199999809265137</speed>
				</extensions>
			</trkpt>
			<trkpt lat="55.6629825476557" lon="12.585141537711024">
				<ele>40.0</ele>
				<time>2023-06-29T15:28:48Z</time>
				<extensions>
					<speed>1.9900000095367432</speed>
				</extensions>
			</trkpt>
			<trkpt lat="55.66299109719694" lon="12.585136676207185">
				<ele>41.0</ele>
				<time>2023-06-29T15:28:49Z</time>
				<extensions>
					<speed>0.5999999642372131</speed>
				</extensions>
			</trkpt>
			<trkpt lat="55.66300048492849" lon="12.585135670378804">
				<ele>41.0</ele>
				<time>2023-06-29T15:28:50Z</time>
				<extensions>
					<speed>0.22999998927116394</speed>
				</extensions>
			</trkpt>
			<trkpt lat="55.66300593316555" lon="12.585142040625215">
				<ele>41.0</ele>
				<time>2023-06-29T15:28:51Z</time>
				<extensions>
					<speed>0.4899999797344208</speed>
				</extensions>
			</trkpt>
			<trkpt lat="55.66300853155553" lon="12.585142375901341">
				<ele>41.0</ele>
				<time>2023-06-29T15:28:52Z</time>
				<extensions>
					<speed>0.05999999865889549</speed>
				</extensions>
			</trkpt>
			<trkpt lat="55.663127596490085" lon="12.585109686478972">
				<ele>44.0</ele>
				<time>2023-06-29T15:29:09Z</time>
				<extensions>
					<speed>0.0</speed>
				</extensions>
			</trkpt>
			<trkpt lat="55.663133463822305" lon="12.585099544376135">
				<ele>43.0</ele>
				<time>2023-06-29T15:29:10Z</time>
				<extensions>
					<speed>1.25</speed>
				</extensions>
			</trkpt>
			<trkpt lat="55.66313551738858" lon="12.585098203271627">
				<ele>43.0</ele>
				<time>2023-06-29T15:29:11Z</time>
				<extensions>
					<speed>1.1299999952316284</speed>
				</extensions>
			</trkpt>
			<trkpt lat="55.66313694231212" lon="12.585104238241911">
				<ele>43.0</ele>
				<time>2023-06-29T15:29:12Z</time>
				<extensions>
					<speed>0.5999999642372131</speed>
				</extensions>
			</trkpt>
			<trkpt lat="55.66313631366938" lon="12.58509879000485">
				<ele>43.0</ele>
				<time>2023-06-29T15:29:13Z</time>
				<extensions>
					<speed>0.5600000023841858</speed>
				</extensions>
			</trkpt>
			<trkpt lat="55.66313593648374" lon="12.585100131109357">
				<ele>43.0</ele>
				<time>2023-06-29T15:29:14Z</time>
				<extensions>
					<speed>0.009999999776482582</speed>
				</extensions>
			</trkpt>
			<trkpt lat="55.66313602030277" lon="12.585099879652262">
				<ele>43.0</ele>
				<time>2023-06-29T15:29:15Z</time>
				<extensions>
					<speed>0.0</speed>
				</extensions>
			</trkpt>
			<trkpt lat="55.66313576884568" lon="12.585100047290325">
				<ele>43.0</ele>
				<time>2023-06-29T15:29:16Z</time>
				<extensions>
					<speed>0.0</speed>
				</extensions>
			</trkpt>
			<trkpt lat="55.66313576884568" lon="12.585100047290325">
				<ele>43.0</ele>
				<time>2023-06-29T15:29:17Z</time>
				<extensions>
					<speed>0.0</speed>
				</extensions>
			</trkpt>
			<trkpt lat="55.663129733875394" lon="12.585097951814532">
				<ele>44.0</ele>
				<time>2023-06-29T15:29:18Z</time>
				<extensions>
					<speed>0.5899999737739563</speed>
				</extensions>
			</trkpt>
			<trkpt lat="55.66312118433416" lon="12.585089318454266">
				<ele>43.0</ele>
				<time>2023-06-29T15:29:19Z</time>
				<extensions>
					<speed>0.75</speed>
				</extensions>
			</trkpt>
			<trkpt lat="55.66312302835286" lon="12.585084792226553">
				<ele>43.0</ele>
				<time>2023-06-29T15:29:20Z</time>
				<extensions>
					<speed>0.8399999737739563</speed>
				</extensions>
			</trkpt>
			<trkpt lat="55.66312457900494" lon="12.585084708407521">
				<ele>43.0</ele>
				<time>2023-06-29T15:29:21Z</time>
				<extensions>
					<speed>0.3799999952316284</speed>
				</extensions>
			</trkpt>
			<trkpt lat="55.6631294824183" lon="12.585076494142413">
				<ele>43.0</ele>
				<time>2023-06-29T15:29:22Z</time>
				<extensions>
					<speed>1.1799999475479126</speed>
				</extensions>
			</trkpt>
			<trkpt lat="55.6631371518597" lon="12.585086217150092">
				<ele>42.0</ele>
				<time>2023-06-29T15:29:23Z</time>
				<extensions>
					<speed>1.4299999475479126</speed>
				</extensions>
			</trkpt>
			<trkpt lat="55.66313656512648" lon="12.58509543724358">
				<ele>42.0</ele>
				<time>2023-06-29T15:29:24Z</time>
				<extensions>
					<speed>0.5099999904632568</speed>
				</extensions>
			</trkpt>
			<trkpt lat="55.66312939859927" lon="12.585097113624215">
				<ele>42.0</ele>
				<time>2023-06-29T15:29:25Z</time>
				<extensions>
					<speed>0.05999999865889549</speed>
				</extensions>
			</trkpt>
			<trkpt lat="55.66313040442765" lon="12.585094515234232">
				<ele>42.0</ele>
				<time>2023-06-29T15:29:26Z</time>
				<extensions>
					<speed>0.2800000011920929</speed>
				</extensions>
			</trkpt>
			<trkpt lat="55.663133170455694" lon="12.5850944314152">
				<ele>41.0</ele>
				<time>2023-06-29T15:29:27Z</time>
				<extensions>
					<speed>0.0</speed>
				</extensions>
			</trkpt>
			<trkpt lat="55.663136104121804" lon="12.58509149774909">
				<ele>41.0</ele>
				<time>2023-06-29T15:29:28Z</time>
				<extensions>
					<speed>0.5399999618530273</speed>
				</extensions>
			</trkpt>
			<trkpt lat="55.663149054162204" lon="12.585097784176469">
				<ele>41.0</ele>
				<time>2023-06-29T15:29:29Z</time>
				<extensions>
					<speed>1.46999990940094</speed>
				</extensions>
			</trkpt>
			<trkpt lat="55.66316657233983" lon="12.585100969299674">
				<ele>41.0</ele>
				<time>2023-06-29T15:29:30Z</time>
				<extensions>
					<speed>1.8700000047683716</speed>
				</extensions>
			</trkpt>
			<trkpt lat="55.66318543162197" lon="12.585107674822211">
				<ele>40.0</ele>
				<time>2023-06-29T15:29:31Z</time>
				<extensions>
					<speed>1.7699999809265137</speed>
				</extensions>
			</trkpt>
			<trkpt lat="55.66320118959993" lon="12.585119409486651">
				<ele>40.0</ele>
				<time>2023-06-29T15:29:32Z</time>
				<extensions>
					<speed>1.8799999952316284</speed>
				</extensions>
			</trkpt>
			<trkpt lat="55.66322365310043" lon="12.585120918229222">
				<ele>40.0</ele>
				<time>2023-06-29T15:29:33Z</time>
				<extensions>
					<speed>2.9600000381469727</speed>
				</extensions>
			</trkpt>
			<trkpt lat="55.66325868945569" lon="12.58511932566762">
				<ele>41.0</ele>
				<time>2023-06-29T15:29:34Z</time>
				<extensions>
					<speed>4.039999961853027</speed>
				</extensions>
			</trkpt>
			<trkpt lat="55.66329326480627" lon="12.585120080038905">
				<ele>41.0</ele>
				<time>2023-06-29T15:29:35Z</time>
				<extensions>
					<speed>3.369999885559082</speed>
				</extensions>
			</trkpt>
			<trkpt lat="55.66332343965769" lon="12.585122426971793">
				<ele>41.0</ele>
				<time>2023-06-29T15:29:36Z</time>
				<extensions>
					<speed>3.2899999618530273</speed>
				</extensions>
			</trkpt>
			<trkpt lat="55.66335407551378" lon="12.585131227970123">
				<ele>41.0</ele>
				<time>2023-06-29T15:29:37Z</time>
				<extensions>
					<speed>3.1399998664855957</speed>
				</extensions>
			</trkpt>
			<trkpt lat="55.6633805623278" lon="12.585138771682978">
				<ele>41.0</ele>
				<time>2023-06-29T15:29:38Z</time>
				<extensions>
					<speed>2.93999981880188</speed>
				</extensions>
			</trkpt>
			<trkpt lat="55.66340424120426" lon="12.58514178916812">
				<ele>41.0</ele>
				<time>2023-06-29T15:29:39Z</time>
				<extensions>
					<speed>2.4700000286102295</speed>
				</extensions>
			</trkpt>
			<trkpt lat="55.66341874189675" lon="12.585148243233562">
				<ele>41.0</ele>
				<time>2023-06-29T15:29:40Z</time>
				<extensions>
					<speed>1.559999942779541</speed>
				</extensions>
			</trkpt>
			<trkpt lat="55.66342926118523" lon="12.585154445841908">
				<ele>41.0</ele>
				<time>2023-06-29T15:29:41Z</time>
				<extensions>
					<speed>1.0199999809265137</speed>
				</extensions>
			</trkpt>
			<trkpt lat="55.663442462682724" lon="12.585160564631224">
				<ele>41.0</ele>
				<time>2023-06-29T15:29:42Z</time>
				<extensions>
					<speed>1.1100000143051147</speed>
				</extensions>
			</trkpt>
			<trkpt lat="55.66344128921628" lon="12.585165258497">
				<ele>42.0</ele>
				<time>2023-06-29T15:29:43Z</time>
				<extensions>
					<speed>0.9300000071525574</speed>
				</extensions>
			</trkpt>
			<trkpt lat="55.663451850414276" lon="12.585152350366116">
				<ele>43.0</ele>
				<time>2023-06-29T15:29:44Z</time>
				<extensions>
					<speed>0.5099999904632568</speed>
				</extensions>
			</trkpt>
			<trkpt lat="55.66345780156553" lon="12.585157630965114">
				<ele>43.0</ele>
				<time>2023-06-29T15:29:45Z</time>
				<extensions>
					<speed>0.41999998688697815</speed>
				</extensions>
			</trkpt>
			<trkpt lat="55.66346362698823" lon="12.585161654278636">
				<ele>43.0</ele>
				<time>2023-06-29T15:29:46Z</time>
				<extensions>
					<speed>0.5199999809265137</speed>
				</extensions>
			</trkpt>
			<trkpt lat="55.6634738529101" lon="12.585171964019537">
				<ele>42.0</ele>
				<time>2023-06-29T15:29:47Z</time>
				<extensions>
					<speed>0.9199999570846558</speed>
				</extensions>
			</trkpt>
			<trkpt lat="55.66348114516586" lon="12.585176238790154">
				<ele>41.0</ele>
				<time>2023-06-29T15:29:48Z</time>
				<extensions>
					<speed>0.429999977350235</speed>
				</extensions>
			</trkpt>
			<trkpt lat="55.66348843742162" lon="12.585183950141072">
				<ele>40.0</ele>
				<time>2023-06-29T15:29:49Z</time>
				<extensions>
					<speed>1.3600000143051147</speed>
				</extensions>
			</trkpt>
			<trkpt lat="55.66350683569908" lon="12.585194511339068">
				<ele>39.0</ele>
				<time>2023-06-29T15:29:50Z</time>
				<extensions>
					<speed>1.209999918937683</speed>
				</extensions>
			</trkpt>
			<trkpt lat="55.663513792678714" lon="12.585200630128384">
				<ele>39.0</ele>
				<time>2023-06-29T15:29:51Z</time>
				<extensions>
					<speed>1.1399999856948853</speed>
				</extensions>
			</trkpt>
			<trkpt lat="55.663517815992236" lon="12.585197780281305">
				<ele>40.0</ele>
				<time>2023-06-29T15:29:52Z</time>
				<extensions>
					<speed>0.10999999940395355</speed>
				</extensions>
			</trkpt>
			<trkpt lat="55.66351425368339" lon="12.585192583501339">
				<ele>40.0</ele>
				<time>2023-06-29T15:29:53Z</time>
				<extensions>
					<speed>0.28999999165534973</speed>
				</extensions>
			</trkpt>
			<trkpt lat="55.66351626534015" lon="12.585201803594828">
				<ele>40.0</ele>
				<time>2023-06-29T15:29:54Z</time>
				<extensions>
					<speed>0.3199999928474426</speed>
				</extensions>
			</trkpt>
			<trkpt lat="55.66351907327771" lon="12.585212532430887">
				<ele>40.0</ele>
				<time>2023-06-29T15:29:55Z</time>
				<extensions>
					<speed>0.7099999785423279</speed>
				</extensions>
			</trkpt>
			<trkpt lat="55.66352938301861" lon="12.585224518552423">
				<ele>41.0</ele>
				<time>2023-06-29T15:29:56Z</time>
				<extensions>
					<speed>0.5899999737739563</speed>
				</extensions>
			</trkpt>
			<trkpt lat="55.66353420261294" lon="12.585233738645911">
				<ele>40.0</ele>
				<time>2023-06-29T15:29:57Z</time>
				<extensions>
					<speed>1.0099999904632568</speed>
				</extensions>
			</trkpt>
			<trkpt lat="55.66354333888739" lon="12.585226278752089">
				<ele>41.0</ele>
				<time>2023-06-29T15:29:58Z</time>
				<extensions>
					<speed>1.2899999618530273</speed>
				</extensions>
			</trkpt>
			<trkpt lat="55.66355042159557" lon="12.585212532430887">
				<ele>41.0</ele>
				<time>2023-06-29T15:29:59Z</time>
				<extensions>
					<speed>1.1799999475479126</speed>
				</extensions>
			</trkpt>
			<trkpt lat="55.66355813294649" lon="12.585213202983141">
				<ele>42.0</ele>
				<time>2023-06-29T15:30:00Z</time>
				<extensions>
					<speed>0.35999998450279236</speed>
				</extensions>
			</trkpt>
			<trkpt lat="55.66355725284666" lon="12.585208090022206">
				<ele>43.0</ele>
				<time>2023-06-29T15:30:01Z</time>
				<extensions>
					<speed>0.10999999940395355</speed>
				</extensions>
			</trkpt>
			<trkpt lat="55.6635663472116" lon="12.585203144699335">
				<ele>43.0</ele>
				<time>2023-06-29T15:30:02Z</time>
				<extensions>
					<speed>0.07000000029802322</speed>
				</extensions>
			</trkpt>
			<trkpt lat="55.66356647294015" lon="12.585203144699335">
				<ele>43.0</ele>
				<time>2023-06-29T15:30:03Z</time>
				<extensions>
					<speed>0.0</speed>
				</extensions>
			</trkpt>
			<trkpt lat="55.66356647294015" lon="12.585203144699335">
				<ele>43.0</ele>
				<time>2023-06-29T15:30:04Z</time>
				<extensions>
					<speed>0.0</speed>
				</extensions>
			</trkpt>
			<trkpt lat="55.66356647294015" lon="12.585203144699335">
				<ele>43.0</ele>
				<time>2023-06-29T15:30:05Z</time>
				<extensions>
					<speed>0.0</speed>
				</extensions>
			</trkpt>
			<trkpt lat="55.66356705967337" lon="12.585206581279635">
				<ele>43.0</ele>
				<time>2023-06-29T15:30:06Z</time>
				<extensions>
					<speed>0.7099999785423279</speed>
				</extensions>
			</trkpt>
			<trkpt lat="55.663572549819946" lon="12.585189063102007">
				<ele>43.0</ele>
				<time>2023-06-29T15:30:07Z</time>
				<extensions>
					<speed>0.25999999046325684</speed>
				</extensions>
			</trkpt>
			<trkpt lat="55.66357200499624" lon="12.585189063102007">
				<ele>43.0</ele>
				<time>2023-06-29T15:30:08Z</time>
				<extensions>
					<speed>0.009999999776482582</speed>
				</extensions>
			</trkpt>
			<trkpt lat="55.66357166972011" lon="12.58518923074007">
				<ele>43.0</ele>
				<time>2023-06-29T15:30:09Z</time>
				<extensions>
					<speed>0.0</speed>
				</extensions>
			</trkpt>
			<trkpt lat="55.66357166972011" lon="12.58518923074007">
				<ele>43.0</ele>
				<time>2023-06-29T15:30:10Z</time>
				<extensions>
					<speed>0.0</speed>
				</extensions>
			</trkpt>
			<trkpt lat="55.66357271745801" lon="12.585194008424878">
				<ele>43.0</ele>
				<time>2023-06-29T15:30:11Z</time>
				<extensions>
					<speed>1.1399999856948853</speed>
				</extensions>
			</trkpt>
			<trkpt lat="55.663567604497075" lon="12.585203731432557">
				<ele>43.0</ele>
				<time>2023-06-29T15:30:12Z</time>
				<extensions>
					<speed>0.25</speed>
				</extensions>
			</trkpt>
		</trkseg>
	</trk>
</gpx>